Friedman Memorial Airport
KSUN : now visible

Aeroporto :











RITROVATECI SU...

 
LOGIN :

Iscrizione | Disclaimer

   EN    FR    IT 

 









Sommario :    VFR   VFR Marginale   IFR   IFR Intensivo   IFR Molto Intensivo
Visibilità : 
Base nubi : 
>= 8 km
>= 3000ft
5 / 8 km
1000 / 3000 ft
1500m / 5 km
500 / 1000 ft
800 / 1500m
200 / 500 ft
< 800m
< 200 ft
Simboli :   Temporali  Nebbia  Neve Forte  Precipitazioni Forti  Vento > 20 kt






- Altitudine del aeroporto : 5318 ft


KSUN - Friedman Memorial

ULTIMO METAR :
  • 271955Z 11006KT 10SM SKC 01/M04 A3019

METARs OBSOLETI :
  • 271755Z 00000KT 10SM SKC M01/M07 A3020

TAF KSUN
Valido dal 27 a 18 ore il 29 a 00 ore UTC


271722Z 2718/2824 32006KT P6SM SKC
FM272000 15006KT P6SM FEW040
FM280300 31006KT P6SM SCT040
FM280800 31006KT P6SM VCSH SCT025 OVC040
FM281300 VRB05KT 2SM -SN BR BKN010 OVC025
FM282200 14005KT P6SM VCSH SCT015 OVC040



MetMap, La meteo Aeronautica in un colpo d'occhio ! - Copyright ORBIFLY Dicembre 2007 - Disclaimer

ORBIFLY MET'MAP TEAM :

Programmazione e sviluppo : Alexandra Zaïnal
Concezione : Baudouin d'Aumeries
Aiuto per la programmazione : Marc-Olivier Méhu
Supporto tecnico e logistico : Manuel Goepfert
Aiuto per la traduzione : Arnaldo La Scala

Contatto : metmap@orbifly.com




FONTI E CREDITI :

   NOAA       Earth
Advisory